createdAt,value
2023-06-19T00:00:17.009Z,98049.63
2023-06-19T00:02:44.563Z,98040.91
2023-06-19T00:05:11.515Z,98055.22
2023-06-19T00:07:38.378Z,98055.66
2023-06-19T00:10:05.592Z,98064.03
2023-06-19T00:12:32.455Z,98065.66
2023-06-19T00:14:59.245Z,98070.44
2023-06-19T00:17:27.645Z,98068.84
2023-06-19T00:19:54.952Z,98066.13
2023-06-19T00:22:21.615Z,98055.00
2023-06-19T00:24:48.987Z,98068.09
2023-06-19T00:27:15.471Z,98067.31
2023-06-19T00:29:41.975Z,98064.13
2023-06-19T00:32:08.737Z,98076.00
2023-06-19T00:34:35.222Z,98072.03
2023-06-19T00:37:01.694Z,98074.00
2023-06-19T00:39:28.853Z,98072.03
2023-06-19T00:41:56.317Z,98073.63
2023-06-19T00:44:24.443Z,98073.63
2023-06-19T00:46:56.909Z,98076.03
2023-06-19T00:49:26.018Z,98076.03
2023-06-19T00:51:53.597Z,98073.69
2023-06-19T00:54:21.042Z,98085.56
2023-06-19T00:56:48.079Z,98078.03
2023-06-19T00:59:21.605Z,98077.66
2023-06-19T01:01:48.179Z,98084.81
2023-06-19T01:04:14.926Z,98085.59
2023-06-19T01:07:04.057Z,98084.03
2023-06-19T01:09:39.779Z,98088.00
2023-06-19T01:12:12.707Z,98092.78
2023-06-19T01:14:51.049Z,98109.84
2023-06-19T01:17:17.721Z,98127.69
2023-06-19T01:19:44.528Z,98146.31
2023-06-19T01:22:11.061Z,98172.91
2023-06-19T01:24:37.820Z,98162.59
2023-06-19T01:27:04.629Z,98176.91
2023-06-19T01:29:31.041Z,98169.03
2023-06-19T01:32:14.589Z,98167.88
2023-06-19T01:34:41.464Z,98166.69
2023-06-19T01:37:10.578Z,98174.25
2023-06-19T01:39:38.438Z,98175.41
2023-06-19T01:42:06.182Z,98178.56
2023-06-19T01:44:33.014Z,98188.06
2023-06-19T01:46:59.463Z,98186.88
2023-06-19T01:49:26.272Z,98184.09
2023-06-19T01:51:52.827Z,98183.31
2023-06-19T01:54:19.295Z,98183.31
2023-06-19T01:56:45.985Z,98177.78
2023-06-19T01:59:12.416Z,98178.97
2023-06-19T02:01:38.922Z,98184.53
2023-06-19T02:04:05.586Z,98186.88
2023-06-19T02:06:32.472Z,98190.44
2023-06-19T02:08:58.988Z,98188.06
2023-06-19T02:11:25.445Z,98186.88
2023-06-19T02:13:52.200Z,98182.13
2023-06-19T02:16:19.198Z,98182.09
2023-06-19T02:18:45.661Z,98183.31
2023-06-19T02:21:12.184Z,98176.97
2023-06-19T02:23:38.652Z,98178.97
2023-06-19T02:26:05.122Z,98181.72
2023-06-19T02:28:31.521Z,98176.56
2023-06-19T02:30:58.025Z,98177.34
2023-06-19T02:33:24.558Z,98169.03
2023-06-19T02:35:51.061Z,98172.63
2023-06-19T02:38:19.709Z,98166.66
2023-06-19T02:40:46.111Z,98166.25
2023-06-19T02:43:12.569Z,98164.31
2023-06-19T02:45:39.065Z,98158.75
2023-06-19T02:48:05.732Z,98169.47
2023-06-19T02:50:32.345Z,98168.25
2023-06-19T02:52:59.000Z,98182.50
2023-06-19T02:55:25.557Z,98179.75
2023-06-19T02:57:52.228Z,98178.53
2023-06-19T03:00:18.842Z,98181.31
2023-06-19T03:02:45.516Z,98177.34
2023-06-19T03:05:16.031Z,98184.88
2023-06-19T03:07:42.742Z,98182.91
2023-06-19T03:10:09.580Z,98191.19
2023-06-19T03:12:36.030Z,98190.44
2023-06-19T03:15:02.642Z,98201.13
2023-06-19T03:17:29.153Z,98201.88
2023-06-19T03:19:55.621Z,98193.50
2023-06-19T03:22:22.862Z,98202.19
2023-06-19T03:24:49.338Z,98204.56
2023-06-19T03:27:15.906Z,98214.47
2023-06-19T03:29:42.350Z,98209.31
2023-06-19T03:32:08.787Z,98201.81
2023-06-19T03:34:35.473Z,98201.81
2023-06-19T03:37:01.930Z,98206.16
2023-06-19T03:39:28.334Z,98207.31
2023-06-19T03:41:54.826Z,98205.34
2023-06-19T03:44:21.268Z,98220.38
2023-06-19T03:46:48.572Z,98217.59
2023-06-19T03:49:15.002Z,98225.91
2023-06-19T03:51:41.529Z,98233.00
2023-06-19T03:54:08.013Z,98229.44
2023-06-19T03:56:34.615Z,98230.63
2023-06-19T03:59:01.065Z,98232.16
2023-06-19T04:01:27.734Z,98238.91
2023-06-19T04:03:54.235Z,98233.34
2023-06-19T04:06:20.766Z,98230.56
2023-06-19T04:08:47.268Z,98240.81
2023-06-19T04:11:13.784Z,98240.00
2023-06-19T04:13:40.271Z,98241.19
2023-06-19T04:16:06.777Z,98252.63
2023-06-19T04:18:33.432Z,98253.75
2023-06-19T04:21:00.366Z,98251.03
2023-06-19T04:23:26.977Z,98262.13
2023-06-19T04:25:53.432Z,98263.25
2023-06-19T04:28:19.863Z,98262.00
2023-06-19T04:30:46.401Z,98265.97
2023-06-19T04:33:13.118Z,98277.88
2023-06-19T04:35:41.461Z,98275.91
2023-06-19T04:38:09.032Z,98277.06
2023-06-19T04:40:35.616Z,98279.06
2023-06-19T04:43:03.520Z,98270.75
2023-06-19T04:45:30.052Z,98282.50
2023-06-19T04:47:56.592Z,98273.00
2023-06-19T04:50:23.578Z,98267.44
2023-06-19T04:52:51.927Z,98271.41
2023-06-19T04:55:19.210Z,98270.22
2023-06-19T04:57:45.929Z,98273.78
2023-06-19T05:00:13.693Z,98271.50
2023-06-19T05:02:40.227Z,98267.53
2023-06-19T05:05:07.412Z,98272.00
2023-06-19T05:07:33.932Z,98265.72
2023-06-19T05:10:00.526Z,98280.00
2023-06-19T05:12:27.113Z,98276.13
2023-06-19T05:14:53.631Z,98278.16
2023-06-19T05:17:20.225Z,98287.34
2023-06-19T05:19:46.756Z,98283.09
2023-06-19T05:22:13.379Z,98287.88
2023-06-19T05:24:40.413Z,98286.31
2023-06-19T05:27:07.200Z,98275.22
2023-06-19T05:29:33.736Z,98279.97
2023-06-19T05:32:00.216Z,98276.78
2023-06-19T05:34:26.657Z,98281.94
2023-06-19T05:36:53.117Z,98286.66
2023-06-19T05:39:20.083Z,98287.84
2023-06-19T05:41:49.409Z,98298.91
2023-06-19T05:44:17.760Z,98296.53
2023-06-19T05:46:44.429Z,98300.47
2023-06-19T05:49:11.346Z,98296.53
2023-06-19T05:51:38.201Z,98309.22
2023-06-19T05:54:05.298Z,98308.44
2023-06-19T05:56:34.057Z,98312.41
2023-06-19T05:59:06.659Z,98306.88
2023-06-19T06:01:33.137Z,98322.31
2023-06-19T06:03:59.621Z,98322.34
2023-06-19T06:06:26.882Z,98326.69
2023-06-19T06:08:53.969Z,98325.91
2023-06-19T06:11:20.531Z,98325.13
2023-06-19T06:13:47.236Z,98327.09
2023-06-19T06:16:13.782Z,98318.81
2023-06-19T06:18:40.278Z,98319.22
2023-06-19T06:21:06.792Z,98317.22
2023-06-19T06:23:33.694Z,98329.91
2023-06-19T06:26:03.521Z,98323.94
2023-06-19T06:28:30.458Z,98325.94
2023-06-19T06:30:56.930Z,98324.38
2023-06-19T06:33:24.271Z,98324.38
2023-06-19T06:35:53.666Z,98324.78
2023-06-19T06:38:20.106Z,98330.75
2023-06-19T06:40:47.035Z,98335.56
2023-06-19T06:43:13.552Z,98340.69
2023-06-19T06:46:13.787Z,98341.09
2023-06-19T06:49:09.017Z,98344.63
2023-06-19T06:51:44.462Z,98346.91
2023-06-19T06:54:47.046Z,98335.75
2023-06-19T07:01:46.208Z,98350.19
2023-06-19T07:31:07.249Z,98364.91
2023-06-19T07:40:34.918Z,98372.03
2023-06-19T07:46:20.765Z,98361.72
2023-06-19T07:48:47.352Z,98367.22
2023-06-19T07:51:13.830Z,98375.97
2023-06-19T07:53:40.829Z,98373.53
2023-06-19T07:56:07.654Z,98366.78
2023-06-19T07:58:34.318Z,98377.06
2023-06-19T08:01:01.212Z,98384.63
2023-06-19T08:03:28.513Z,98376.28
2023-06-19T08:05:55.104Z,98386.25
2023-06-19T08:08:21.642Z,98375.94
2023-06-19T08:10:48.115Z,98377.50
2023-06-19T08:13:14.768Z,98376.31
2023-06-19T08:15:41.265Z,98377.09
2023-06-19T08:18:07.926Z,98379.00
2023-06-19T08:20:34.691Z,98381.13
2023-06-19T08:23:01.238Z,98376.59
2023-06-19T08:25:27.798Z,98376.28
2023-06-19T08:27:54.275Z,98367.63
2023-06-19T08:30:20.787Z,98363.59
2023-06-19T08:32:47.850Z,98359.31
2023-06-19T08:35:14.404Z,98364.31
2023-06-19T08:37:40.915Z,98354.81
2023-06-19T08:40:10.534Z,98355.44
2023-06-19T08:42:38.088Z,98352.44
2023-06-19T08:45:05.866Z,98351.72
2023-06-19T08:47:35.674Z,98356.16
2023-06-19T08:50:03.192Z,98354.69
2023-06-19T08:52:29.848Z,98357.59
2023-06-19T08:54:56.294Z,98364.81
2023-06-19T08:57:22.816Z,98355.34
2023-06-19T08:59:50.932Z,98357.72
2023-06-19T09:02:17.826Z,98356.03
2023-06-19T09:04:44.403Z,98355.66
2023-06-19T09:07:13.175Z,98349.75
2023-06-19T09:09:46.157Z,98353.06
2023-06-19T09:12:14.463Z,98343.31
2023-06-19T09:14:42.970Z,98348.22
2023-06-19T09:17:13.874Z,98352.81
2023-06-19T09:19:52.520Z,98345.00
2023-06-19T09:22:22.064Z,98345.13
2023-06-19T09:24:49.606Z,98354.22
2023-06-19T09:27:19.470Z,98345.34
2023-06-19T09:32:15.802Z,98344.56
2023-06-19T09:34:42.303Z,98348.22
2023-06-19T09:37:10.036Z,98342.44
2023-06-19T09:39:41.240Z,98344.31
2023-06-19T09:42:09.351Z,98335.41
2023-06-19T09:47:35.769Z,98336.41
2023-06-19T09:48:35.262Z,98342.81
2023-06-19T09:57:59.026Z,98337.84
2023-06-19T10:04:31.686Z,98334.22
2023-06-19T10:38:18.571Z,98316.50
2023-06-19T10:44:29.666Z,98304.81
2023-06-19T10:46:56.285Z,98311.84
2023-06-19T10:49:23.373Z,98316.56
2023-06-19T10:51:49.859Z,98317.06
2023-06-19T10:54:16.476Z,98308.69
2023-06-19T10:56:44.681Z,98309.81
2023-06-19T10:59:12.674Z,98310.16
2023-06-19T11:01:45.542Z,98303.91
2023-06-19T11:04:14.169Z,98307.09
2023-06-19T11:06:42.415Z,98298.72
2023-06-19T11:09:12.527Z,98309.97
2023-06-19T11:11:39.737Z,98311.25
2023-06-19T11:14:06.813Z,98308.69
2023-06-19T11:16:34.402Z,98311.84
2023-06-19T11:19:02.061Z,98313.88
2023-06-19T11:21:39.117Z,98309.97
2023-06-19T11:24:12.114Z,98306.97
2023-06-19T11:26:39.728Z,98310.50
2023-06-19T11:29:32.909Z,98300.81
2023-06-19T11:32:11.897Z,98298.16
2023-06-19T11:34:38.505Z,98289.88
2023-06-19T11:37:15.852Z,98292.88
2023-06-19T11:39:45.216Z,98286.84
2023-06-19T11:42:11.746Z,98295.56
2023-06-19T12:17:32.429Z,98280.63
2023-06-19T12:23:59.373Z,98269.16
2023-06-19T12:27:01.110Z,98273.88
2023-06-19T12:31:05.670Z,98267.84
2023-06-19T12:33:14.021Z,98265.31
2023-06-19T12:36:48.074Z,98261.44
2023-06-19T12:39:20.122Z,98268.19
2023-06-19T12:42:37.655Z,98267.72
2023-06-19T12:45:04.538Z,98263.75
2023-06-19T12:47:31.105Z,98267.03
2023-06-19T12:49:57.664Z,98267.28
2023-06-19T12:52:24.138Z,98255.63
2023-06-19T12:54:50.610Z,98250.81
2023-06-19T12:57:17.417Z,98259.44
2023-06-19T12:59:43.967Z,98262.34
2023-06-19T13:02:12.625Z,98268.72
2023-06-19T13:04:40.686Z,98266.13
2023-06-19T13:07:07.818Z,98261.63
2023-06-19T13:09:34.292Z,98254.53
2023-06-19T13:12:00.822Z,98249.97
2023-06-19T13:14:27.293Z,98241.19
2023-06-19T13:16:53.877Z,98238.75
2023-06-19T13:19:20.586Z,98232.31
2023-06-19T13:21:47.052Z,98223.91
2023-06-19T13:24:13.776Z,98222.09
2023-06-19T13:26:40.459Z,98232.00
2023-06-19T13:29:06.972Z,98218.84
2023-06-19T13:31:33.546Z,98226.25
2023-06-19T13:34:00.027Z,98217.16
2023-06-19T13:36:27.867Z,98214.34
2023-06-19T13:39:02.273Z,98213.91
2023-06-19T13:41:29.206Z,98209.09
2023-06-19T14:00:45.007Z,98197.41
2023-06-19T14:03:20.860Z,98188.41
2023-06-19T14:13:08.734Z,98182.78
2023-06-19T14:40:38.259Z,98158.63
2023-06-19T14:58:46.261Z,98143.16
2023-06-19T15:26:55.105Z,98097.03
2023-06-19T15:29:21.580Z,98098.25
2023-06-19T15:31:48.050Z,98092.25
2023-06-19T15:34:14.506Z,98091.72
2023-06-19T15:36:41.040Z,98100.44
2023-06-19T15:39:07.522Z,98102.97
2023-06-19T15:41:34.123Z,98096.56
2023-06-19T15:44:00.591Z,98094.66
2023-06-19T15:46:27.031Z,98098.63
2023-06-19T15:48:53.899Z,98107.06
2023-06-19T15:51:20.442Z,98106.91
2023-06-19T15:53:47.253Z,98112.44
2023-06-19T15:56:14.094Z,98109.97
2023-06-19T15:58:40.736Z,98110.88
2023-06-19T16:01:07.278Z,98114.00
2023-06-19T16:03:34.352Z,98113.91
2023-06-19T16:06:07.753Z,98113.13
2023-06-19T16:08:35.088Z,98115.56
2023-06-19T16:11:04.104Z,98117.50
2023-06-19T16:13:30.671Z,98128.31
2023-06-19T16:15:57.190Z,98120.53
2023-06-19T16:18:23.746Z,98113.91
2023-06-19T16:20:50.181Z,98112.41
2023-06-19T16:23:16.670Z,98120.13
2023-06-19T16:26:46.675Z,98116.28
2023-06-19T16:32:35.969Z,98101.69
2023-06-19T16:41:23.666Z,98117.41
2023-06-19T16:51:43.172Z,98120.22
2023-06-19T17:00:27.184Z,98119.34
2023-06-19T17:03:28.179Z,98119.34
2023-06-19T17:09:59.280Z,98124.56
2023-06-19T17:16:32.610Z,98125.44
2023-06-19T17:25:32.688Z,98137.91
2023-06-19T17:27:59.691Z,98134.31
2023-06-19T17:30:29.305Z,98132.41
2023-06-19T17:32:58.155Z,98140.34
2023-06-19T17:35:25.572Z,98146.22
2023-06-19T17:37:51.988Z,98144.06
2023-06-19T17:40:18.597Z,98148.97
2023-06-19T17:42:45.073Z,98155.78
2023-06-19T17:45:12.438Z,98142.00
2023-06-19T17:47:39.426Z,98156.94
2023-06-19T17:50:06.661Z,98159.41
2023-06-19T17:52:33.587Z,98151.00
2023-06-19T17:55:00.188Z,98155.50
2023-06-19T17:57:27.127Z,98145.34
2023-06-19T17:59:55.373Z,98149.34
2023-06-19T18:02:22.762Z,98158.19
2023-06-19T18:04:49.315Z,98152.28
2023-06-19T18:07:16.644Z,98161.53
2023-06-19T18:09:47.496Z,98161.22
2023-06-19T18:12:15.932Z,98165.84
2023-06-19T18:14:43.137Z,98167.69
2023-06-19T18:17:09.648Z,98165.81
2023-06-19T18:19:36.310Z,98163.44
2023-06-19T18:22:02.893Z,98164.75
2023-06-19T18:24:29.386Z,98167.25
2023-06-19T18:26:55.982Z,98163.69
2023-06-19T18:29:24.532Z,98170.09
2023-06-19T18:31:51.318Z,98165.78
2023-06-19T18:34:18.200Z,98164.91
2023-06-19T18:36:44.688Z,98153.41
2023-06-19T18:39:11.081Z,98159.84
2023-06-19T18:41:37.673Z,98151.50
2023-06-19T18:44:04.268Z,98150.44
2023-06-19T18:46:30.862Z,98155.28
2023-06-19T18:48:57.288Z,98142.66
2023-06-19T18:51:23.782Z,98137.44
2023-06-19T18:53:51.059Z,98136.25
2023-06-19T18:56:18.883Z,98136.66
2023-06-19T18:58:46.079Z,98133.47
2023-06-19T19:01:14.001Z,98135.41
2023-06-19T19:03:41.967Z,98136.22
2023-06-19T19:06:08.850Z,98137.03
2023-06-19T19:08:35.356Z,98145.00
2023-06-19T19:11:01.878Z,98142.22
2023-06-19T19:13:28.476Z,98151.84
2023-06-19T19:15:55.155Z,98145.56
2023-06-19T19:18:21.826Z,98142.84
2023-06-19T19:20:48.463Z,98141.28
2023-06-19T19:23:14.948Z,98143.31
2023-06-19T19:25:41.434Z,98149.31
2023-06-19T19:28:14.295Z,98147.78
2023-06-19T19:30:45.298Z,98156.94
2023-06-19T19:33:11.943Z,98158.94
2023-06-19T19:35:38.607Z,98153.41
2023-06-19T19:38:05.098Z,98149.06
2023-06-19T19:40:31.626Z,98158.19
2023-06-19T19:42:58.154Z,98158.97
2023-06-19T19:45:24.613Z,98164.53
2023-06-19T19:47:51.144Z,98170.16
2023-06-19T19:50:17.659Z,98181.28
2023-06-19T19:52:44.417Z,98182.88
2023-06-19T19:55:12.256Z,98178.91
2023-06-19T19:57:38.799Z,98175.78
2023-06-19T20:00:06.206Z,98178.16
2023-06-19T20:02:32.837Z,98188.91
2023-06-19T20:05:01.525Z,98190.88
2023-06-19T20:07:28.047Z,98184.56
2023-06-19T20:09:54.541Z,98191.34
2023-06-19T20:12:22.279Z,98183.78
2023-06-19T20:14:49.547Z,98179.44
2023-06-19T20:17:16.533Z,98177.88
2023-06-19T20:19:43.101Z,98189.75
2023-06-19T20:22:09.589Z,98187.03
2023-06-19T20:24:36.227Z,98189.38
2023-06-19T20:27:02.877Z,98185.03
2023-06-19T20:29:29.342Z,98179.09
2023-06-19T20:31:55.969Z,98175.91
2023-06-19T20:34:22.673Z,98186.69
2023-06-19T20:36:49.127Z,98187.09
2023-06-19T20:39:16.129Z,98189.88
2023-06-19T20:41:50.262Z,98193.47
2023-06-19T20:44:18.229Z,98182.38
2023-06-19T20:46:45.261Z,98192.31
2023-06-19T20:49:11.855Z,98186.38
2023-06-19T20:51:38.505Z,98194.28
2023-06-19T20:54:05.827Z,98193.50
2023-06-19T20:56:32.448Z,98192.72
2023-06-19T20:58:58.980Z,98194.72
2023-06-19T21:01:26.190Z,98191.16
2023-06-19T21:03:52.822Z,98186.38
2023-06-19T21:06:19.448Z,98187.22
2023-06-19T21:08:46.031Z,98186.41
2023-06-19T21:11:12.460Z,98188.03
2023-06-19T21:13:39.676Z,98189.22
2023-06-19T21:16:06.184Z,98183.28
2023-06-19T21:18:32.658Z,98181.72
2023-06-19T21:20:59.474Z,98190.03
2023-06-19T21:23:25.898Z,98191.22
2023-06-19T21:25:52.605Z,98189.25
2023-06-19T21:28:19.106Z,98193.63
2023-06-19T21:30:45.780Z,98192.84
2023-06-19T21:33:12.545Z,98178.94
2023-06-19T21:35:39.242Z,98169.03
2023-06-19T21:38:05.929Z,98171.44
2023-06-19T21:40:35.468Z,98169.88
2023-06-19T21:43:02.257Z,98165.09
2023-06-19T21:45:29.722Z,98165.91
2023-06-19T21:47:57.293Z,98165.91
2023-06-19T21:50:24.469Z,98169.84
2023-06-19T21:53:32.635Z,98167.06
2023-06-19T21:55:59.970Z,98159.53
2023-06-19T21:58:26.868Z,98145.28
2023-06-19T22:00:53.270Z,98152.41
2023-06-19T22:03:19.988Z,98146.47
2023-06-19T22:05:46.604Z,98141.72
2023-06-19T22:08:14.402Z,98134.97
2023-06-19T22:10:40.862Z,98128.25
2023-06-19T22:13:14.164Z,98132.63
2023-06-19T22:15:41.273Z,98133.03
2023-06-19T22:18:07.820Z,98128.25
2023-06-19T22:20:34.324Z,98140.53
2023-06-19T22:23:01.096Z,98135.78
2023-06-19T22:25:30.655Z,98121.53
2023-06-19T22:27:59.726Z,98124.69
2023-06-19T22:30:26.567Z,98129.44
2023-06-19T22:32:53.338Z,98124.28
2023-06-19T22:35:20.384Z,98123.09
2023-06-19T22:37:47.723Z,98114.00
2023-06-19T22:40:14.563Z,98112.81
2023-06-19T22:42:42.579Z,98115.97
2023-06-19T22:45:12.860Z,98114.03
2023-06-19T22:47:39.827Z,98112.81
2023-06-19T22:50:07.776Z,98102.50
2023-06-19T22:52:34.924Z,98100.13
2023-06-19T22:55:01.920Z,98094.59
2023-06-19T22:57:28.615Z,98093.00
2023-06-19T22:59:55.067Z,98089.84
2023-06-19T23:02:21.787Z,98092.22
2023-06-19T23:04:49.088Z,98098.94
2023-06-19T23:07:15.568Z,98093.78
2023-06-19T23:09:42.079Z,98095.75
2023-06-19T23:12:09.008Z,98093.00
2023-06-19T23:14:35.474Z,98102.09
2023-06-19T23:17:02.029Z,98087.03
2023-06-19T23:19:28.500Z,98081.91
2023-06-19T23:21:55.579Z,98077.53
2023-06-19T23:24:22.201Z,98090.19
2023-06-19T23:26:50.017Z,98085.06
2023-06-19T23:29:16.480Z,98076.75
2023-06-19T23:31:42.957Z,98075.13
2023-06-19T23:34:09.434Z,98080.28
2023-06-19T23:36:36.150Z,98074.34
2023-06-19T23:39:02.627Z,98075.53
2023-06-19T23:41:29.102Z,98066.81
2023-06-19T23:43:55.525Z,98074.72
2023-06-19T23:46:22.060Z,98084.63
2023-06-19T23:48:48.507Z,98085.78
2023-06-19T23:51:14.995Z,98086.56
2023-06-19T23:53:41.404Z,98086.94
2023-06-19T23:56:07.836Z,98085.00
2023-06-19T23:58:34.340Z,98077.09
